Time;durP1;ratioP1;P1;durP2;ratioP2;P2;SDS_P1;SDS_P2;PMS_P1;PMS_P2;Temp;Humidity;BMP_temperature;BMP_pressure;BME280_temperature;BME280_humidity;BME280_pressure;Samples;Min_cycle;Max_cycle;Signal;HPM_P1;HPM_P2
2022/11/17 00:02:26;;;;;;;10.47;9.40;;;;;;;;;;5055008;28;20438;-78
2022/11/17 00:04:54;;;;;;;7.90;6.93;;;;;;;;;;5053365;28;20789;-77
2022/11/17 00:07:21;;;;;;;8.57;7.80;;;;;;;;;;5066036;28;20487;-77
2022/11/17 00:09:48;;;;;;;9.23;7.67;;;;;;;;;;5063235;28;20496;-76
2022/11/17 00:15:00;;;;;;;9.90;8.27;;;;;;;;;;5073163;28;20434;-75
2022/11/17 00:17:28;;;;;;;11.20;8.70;;;;;;;;;;5073118;28;20440;-76
2022/11/17 00:22:40;;;;;;;8.80;7.90;;;;;;;;;;5084544;28;20448;-76
2022/11/17 00:25:07;;;;;;;12.53;8.90;;;;;;;;;;5076674;28;20439;-75
2022/11/17 00:27:35;;;;;;;9.60;8.77;;;;;;;;;;5079962;28;20484;-76
2022/11/17 00:30:02;;;;;;;10.30;8.30;;;;;;;;;;5077833;28;20937;-76
2022/11/17 00:35:15;;;;;;;9.53;8.73;;;;;;;;;;5076237;28;20486;-75
2022/11/17 00:38:14;;;;;;;12.03;9.10;;;;;;;;;;5076728;28;20445;-76
2022/11/17 00:40:30;;;;;;;9.73;8.77;;;;;;;;;;5073367;28;20451;-75
2022/11/17 00:42:57;;;;;;;12.23;10.97;;;;;;;;;;5073280;28;20453;-75
2022/11/17 00:45:24;;;;;;;10.60;9.50;;;;;;;;;;5075753;28;20763;-75
2022/11/17 00:47:52;;;;;;;9.47;8.57;;;;;;;;;;5073633;28;20998;-76
2022/11/17 00:50:19;;;;;;;10.90;8.77;;;;;;;;;;5072240;28;21111;-76
2022/11/17 00:52:46;;;;;;;11.87;10.70;;;;;;;;;;5071263;28;20976;-75
2022/11/17 00:55:13;;;;;;;10.50;9.47;;;;;;;;;;5071640;28;20462;-75
2022/11/17 00:57:41;;;;;;;10.90;9.03;;;;;;;;;;5071957;28;20455;-75
2022/11/17 01:00:09;;;;;;;10.80;8.93;;;;;;;;;;5072004;28;20447;-77
2022/11/17 01:02:36;;;;;;;10.27;9.30;;;;;;;;;;5070370;28;20444;-76
2022/11/17 01:05:04;;;;;;;9.80;8.80;;;;;;;;;;5071425;28;20515;-75
2022/11/17 01:07:31;;;;;;;10.77;9.17;;;;;;;;;;5071541;28;20484;-77
2022/11/17 01:09:58;;;;;;;9.80;8.80;;;;;;;;;;5071577;28;20928;-75
2022/11/17 01:12:25;;;;;;;11.20;8.73;;;;;;;;;;5071416;28;20441;-76
2022/11/17 01:14:53;;;;;;;9.13;8.23;;;;;;;;;;5070844;28;20456;-74
2022/11/17 01:17:20;;;;;;;9.10;8.00;;;;;;;;;;5071434;28;20436;-75
2022/11/17 01:19:47;;;;;;;8.63;7.93;;;;;;;;;;5071321;28;20444;-76
2022/11/17 01:22:16;;;;;;;10.80;8.53;;;;;;;;;;5071034;28;20444;-75
2022/11/17 01:24:43;;;;;;;8.83;7.87;;;;;;;;;;5070939;28;20476;-76
2022/11/17 01:27:10;;;;;;;12.30;8.40;;;;;;;;;;5071168;28;21077;-76
2022/11/17 01:29:37;;;;;;;8.47;7.67;;;;;;;;;;5071371;28;20451;-77
2022/11/17 01:32:04;;;;;;;6.13;5.53;;;;;;;;;;5071196;28;20449;-75
2022/11/17 01:34:31;;;;;;;5.77;5.27;;;;;;;;;;5070184;28;21010;-75
2022/11/17 01:39:45;;;;;;;6.30;5.67;;;;;;;;;;5071603;28;20404;-75
2022/11/17 01:42:14;;;;;;;5.60;5.10;;;;;;;;;;5071500;28;20448;-76
2022/11/17 01:45:02;;;;;;;6.07;5.50;;;;;;;;;;5070322;28;20486;-75
2022/11/17 01:47:35;;;;;;;5.10;4.60;;;;;;;;;;5065706;28;20844;-75
2022/11/17 01:50:07;;;;;;;5.73;5.30;;;;;;;;;;5071187;28;20820;-76
2022/11/17 01:52:35;;;;;;;5.63;5.17;;;;;;;;;;5070513;28;20459;-76
2022/11/17 01:55:04;;;;;;;5.40;5.00;;;;;;;;;;5070774;28;20831;-75
2022/11/17 01:57:33;;;;;;;7.20;4.73;;;;;;;;;;5070994;28;20440;-76
2022/11/17 02:00:02;;;;;;;6.40;5.30;;;;;;;;;;5071204;28;20459;-76
2022/11/17 02:02:29;;;;;;;5.87;4.90;;;;;;;;;;5070687;28;20480;-76
2022/11/17 02:05:02;;;;;;;5.07;4.67;;;;;;;;;;5071635;28;20463;-76
2022/11/17 02:07:30;;;;;;;5.10;4.70;;;;;;;;;;5079101;28;20898;-76
2022/11/17 02:09:57;;;;;;;7.23;5.50;;;;;;;;;;5081217;28;20441;-76
2022/11/17 02:12:27;;;;;;;4.50;4.20;;;;;;;;;;5072631;28;20475;-77
2022/11/17 02:14:55;;;;;;;4.97;4.43;;;;;;;;;;5069289;28;20464;-76
2022/11/17 02:17:23;;;;;;;6.00;4.50;;;;;;;;;;5070554;28;20444;-75
2022/11/17 02:19:57;;;;;;;5.83;4.53;;;;;;;;;;5070684;28;20441;-75
2022/11/17 02:22:33;;;;;;;4.80;4.47;;;;;;;;;;5070740;28;20447;-75
2022/11/17 02:25:07;;;;;;;5.63;4.50;;;;;;;;;;5070292;28;20471;-75
2022/11/17 02:27:41;;;;;;;8.97;4.17;;;;;;;;;;5070660;28;20471;-76
2022/11/17 02:30:11;;;;;;;5.53;4.90;;;;;;;;;;5070494;28;20448;-77
2022/11/17 02:32:42;;;;;;;4.77;4.33;;;;;;;;;;5069784;28;20483;-76
2022/11/17 02:35:12;;;;;;;5.37;4.97;;;;;;;;;;5070799;28;20819;-76
2022/11/17 02:37:44;;;;;;;4.80;4.40;;;;;;;;;;5070236;28;20441;-75
2022/11/17 02:40:15;;;;;;;4.70;4.33;;;;;;;;;;5070214;28;20450;-76
2022/11/17 02:45:35;;;;;;;5.37;4.33;;;;;;;;;;5070343;28;20419;-78
2022/11/17 02:48:06;;;;;;;5.70;5.20;;;;;;;;;;5070195;28;20482;-75
2022/11/17 02:50:35;;;;;;;6.00;5.03;;;;;;;;;;5070676;28;20437;-76
2022/11/17 02:53:03;;;;;;;5.33;4.83;;;;;;;;;;5069651;28;20476;-76
2022/11/17 02:55:32;;;;;;;5.93;4.90;;;;;;;;;;5070184;28;20436;-78
2022/11/17 02:58:00;;;;;;;8.40;5.07;;;;;;;;;;5070093;28;20444;-75
2022/11/17 03:00:28;;;;;;;5.60;4.97;;;;;;;;;;5071621;28;20437;-76
2022/11/17 03:03:01;;;;;;;6.60;5.20;;;;;;;;;;5072843;28;20747;-75
2022/11/17 03:05:31;;;;;;;5.80;5.00;;;;;;;;;;5070533;28;20912;-75
2022/11/17 03:08:09;;;;;;;6.50;5.47;;;;;;;;;;5070302;28;20472;-76
2022/11/17 03:10:42;;;;;;;5.70;5.23;;;;;;;;;;5070095;28;20433;-76
2022/11/17 03:13:13;;;;;;;5.67;5.17;;;;;;;;;;5069450;28;20457;-75
2022/11/17 03:15:44;;;;;;;5.37;4.60;;;;;;;;;;5077380;28;20451;-75
2022/11/17 03:18:14;;;;;;;7.97;5.00;;;;;;;;;;5072901;28;20440;-75
2022/11/17 03:20:46;;;;;;;6.20;5.10;;;;;;;;;;5083768;28;20440;-76
2022/11/17 03:23:17;;;;;;;6.13;5.30;;;;;;;;;;5076450;28;20478;-75
2022/11/17 03:25:46;;;;;;;5.33;4.90;;;;;;;;;;5071251;28;20455;-75
2022/11/17 03:28:16;;;;;;;6.13;5.63;;;;;;;;;;5074065;28;20471;-77
2022/11/17 03:30:44;;;;;;;7.43;5.30;;;;;;;;;;5073838;28;20452;-78
2022/11/17 03:33:14;;;;;;;5.97;5.37;;;;;;;;;;5072760;28;20460;-77
2022/11/17 03:35:43;;;;;;;6.27;5.67;;;;;;;;;;5073067;28;20532;-76
2022/11/17 03:38:13;;;;;;;5.30;4.80;;;;;;;;;;5073542;28;20444;-76
2022/11/17 03:40:40;;;;;;;5.57;5.07;;;;;;;;;;5073545;28;20820;-75
2022/11/17 03:43:08;;;;;;;5.40;5.00;;;;;;;;;;5072871;28;20475;-75
2022/11/17 03:45:39;;;;;;;4.67;4.37;;;;;;;;;;5073151;28;20509;-76
2022/11/17 03:48:08;;;;;;;5.53;5.10;;;;;;;;;;5073130;28;20495;-77
2022/11/17 03:50:37;;;;;;;6.10;4.87;;;;;;;;;;5073291;28;20452;-77
2022/11/17 03:53:05;;;;;;;4.60;4.20;;;;;;;;;;5072715;28;20468;-76
2022/11/17 03:55:35;;;;;;;4.53;4.20;;;;;;;;;;5073095;28;20962;-76
2022/11/17 03:58:05;;;;;;;4.70;4.30;;;;;;;;;;5073670;28;20435;-76
2022/11/17 04:00:33;;;;;;;4.80;4.40;;;;;;;;;;5072905;28;20456;-77
2022/11/17 04:03:01;;;;;;;4.83;4.33;;;;;;;;;;5072437;28;20822;-75
2022/11/17 04:05:28;;;;;;;5.00;4.70;;;;;;;;;;5073024;28;20449;-77
2022/11/17 04:07:55;;;;;;;5.97;4.50;;;;;;;;;;5073270;28;20455;-76
2022/11/17 04:10:27;;;;;;;7.87;4.23;;;;;;;;;;5073126;28;20581;-77
2022/11/17 04:15:57;;;;;;;4.27;3.87;;;;;;;;;;5015542;28;20528;-76
2022/11/17 04:18:26;;;;;;;3.90;3.60;;;;;;;;;;5072784;28;20487;-75
2022/11/17 04:20:54;;;;;;;4.73;4.27;;;;;;;;;;5072838;28;20441;-75
2022/11/17 04:23:21;;;;;;;4.40;4.10;;;;;;;;;;5072039;28;20476;-75
2022/11/17 04:28:38;;;;;;;3.77;3.57;;;;;;;;;;5072555;28;20916;-77
2022/11/17 04:31:10;;;;;;;4.10;3.80;;;;;;;;;;5072886;28;20425;-76
2022/11/17 04:33:39;;;;;;;3.57;3.33;;;;;;;;;;5072088;28;20479;-76
2022/11/17 04:36:07;;;;;;;4.13;3.60;;;;;;;;;;5072687;28;20444;-75
2022/11/17 04:38:34;;;;;;;3.97;3.70;;;;;;;;;;5085115;28;20440;-76
2022/11/17 04:43:47;;;;;;;4.40;4.10;;;;;;;;;;5084651;28;21112;-76
2022/11/17 04:46:14;;;;;;;4.10;3.80;;;;;;;;;;5073412;28;20444;-76
2022/11/17 04:48:42;;;;;;;4.37;4.03;;;;;;;;;;5072335;28;20491;-77
2022/11/17 04:51:09;;;;;;;8.63;4.80;;;;;;;;;;5072329;28;20939;-76
2022/11/17 04:53:37;;;;;;;4.50;4.20;;;;;;;;;;5071755;28;20808;-75
2022/11/17 04:56:04;;;;;;;4.67;4.07;;;;;;;;;;5072443;28;20444;-77
2022/11/17 04:58:31;;;;;;;5.57;4.27;;;;;;;;;;5072396;28;20455;-76
2022/11/17 05:01:11;;;;;;;6.33;4.33;;;;;;;;;;5072883;28;20792;-76
2022/11/17 05:03:38;;;;;;;4.13;3.50;;;;;;;;;;5079004;28;20822;-76
2022/11/17 05:06:06;;;;;;;7.20;6.60;;;;;;;;;;5082940;28;20454;-75
2022/11/17 05:08:35;;;;;;;4.70;4.30;;;;;;;;;;5077632;28;20559;-75
2022/11/17 05:13:48;;;;;;;4.37;4.13;;;;;;;;;;5078944;28;21049;-75
2022/11/17 05:19:00;;;;;;;6.00;5.40;;;;;;;;;;5073261;28;20407;-75
2022/11/17 05:21:29;;;;;;;4.97;4.60;;;;;;;;;;5072131;28;20455;-75
2022/11/17 05:23:55;;;;;;;4.47;4.13;;;;;;;;;;5072124;28;20477;-75
2022/11/17 05:26:23;;;;;;;4.67;4.27;;;;;;;;;;5072221;28;20852;-76
2022/11/17 05:28:50;;;;;;;8.17;4.87;;;;;;;;;;5071713;28;20479;-77
2022/11/17 05:31:17;;;;;;;12.97;11.70;;;;;;;;;;5072332;28;20440;-76
2022/11/17 05:33:45;;;;;;;7.83;6.73;;;;;;;;;;5071709;28;20476;-76
2022/11/17 05:36:12;;;;;;;5.00;4.60;;;;;;;;;;5071992;28;20449;-76
2022/11/17 05:38:40;;;;;;;5.83;5.43;;;;;;;;;;5072127;28;20452;-75
2022/11/17 05:41:07;;;;;;;5.73;5.33;;;;;;;;;;5072812;28;20456;-76
2022/11/17 05:43:35;;;;;;;5.13;4.80;;;;;;;;;;5074100;28;20465;-76
2022/11/17 05:46:02;;;;;;;5.60;5.03;;;;;;;;;;5083051;28;20944;-76
2022/11/17 05:48:29;;;;;;;7.43;4.60;;;;;;;;;;5087509;28;20481;-75
2022/11/17 05:50:56;;;;;;;5.33;4.73;;;;;;;;;;5086441;28;21243;-75
2022/11/17 05:53:24;;;;;;;5.30;4.90;;;;;;;;;;5084046;28;20463;-75
2022/11/17 05:56:05;;;;;;;4.70;4.40;;;;;;;;;;5084995;28;20440;-75
2022/11/17 05:58:33;;;;;;;6.20;4.50;;;;;;;;;;5084484;28;20439;-76
2022/11/17 06:01:00;;;;;;;5.10;4.60;;;;;;;;;;5082185;28;20451;-76
2022/11/17 06:03:29;;;;;;;5.70;5.20;;;;;;;;;;5081697;28;20475;-77
2022/11/17 06:05:56;;;;;;;5.87;5.37;;;;;;;;;;5081574;28;20440;-76
2022/11/17 06:08:23;;;;;;;4.93;4.53;;;;;;;;;;5079110;28;20448;-76
2022/11/17 06:10:50;;;;;;;5.30;4.80;;;;;;;;;;5083277;28;20441;-75
2022/11/17 06:13:24;;;;;;;5.27;4.77;;;;;;;;;;5075618;28;20465;-76
2022/11/17 06:15:51;;;;;;;5.53;5.03;;;;;;;;;;5082045;28;20819;-76
2022/11/17 06:18:19;;;;;;;5.63;4.53;;;;;;;;;;5083613;28;20455;-77
2022/11/17 06:20:48;;;;;;;6.40;5.67;;;;;;;;;;5072197;28;20815;-77
2022/11/17 06:23:16;;;;;;;6.27;5.67;;;;;;;;;;5070643;28;20472;-77
2022/11/17 06:25:43;;;;;;;5.53;5.03;;;;;;;;;;5071189;28;20448;-76
2022/11/17 06:28:11;;;;;;;4.90;4.50;;;;;;;;;;5070615;28;20550;-77
2022/11/17 06:30:40;;;;;;;4.80;4.40;;;;;;;;;;5070717;28;20480;-77
2022/11/17 06:33:08;;;;;;;4.73;4.20;;;;;;;;;;5070730;28;20465;-77
2022/11/17 06:35:35;;;;;;;5.80;4.87;;;;;;;;;;5070852;28;20452;-76
2022/11/17 06:38:03;;;;;;;12.57;9.70;;;;;;;;;;5070318;28;20452;-77
2022/11/17 06:40:30;;;;;;;4.03;3.63;;;;;;;;;;5070610;28;20449;-76
2022/11/17 06:43:09;;;;;;;4.63;4.23;;;;;;;;;;5069710;28;20445;-77
2022/11/17 06:45:37;;;;;;;5.33;4.00;;;;;;;;;;5070622;28;20445;-76
2022/11/17 06:48:06;;;;;;;7.57;5.37;;;;;;;;;;5070348;28;20441;-76
2022/11/17 06:50:33;;;;;;;15.67;10.50;;;;;;;;;;5070376;28;20476;-77
2022/11/17 06:53:01;;;;;;;4.30;4.00;;;;;;;;;;5069577;28;20440;-78
2022/11/17 06:55:28;;;;;;;4.87;4.47;;;;;;;;;;5070833;28;20440;-77
2022/11/17 06:57:59;;;;;;;4.83;3.00;;;;;;;;;;5070704;28;20453;-76
2022/11/17 07:00:26;;;;;;;6.60;4.00;;;;;;;;;;5071024;28;20461;-77
2022/11/17 07:02:53;;;;;;;4.17;3.77;;;;;;;;;;5074413;28;20459;-77
2022/11/17 07:05:21;;;;;;;4.50;3.90;;;;;;;;;;5075679;28;20451;-77
2022/11/17 07:07:48;;;;;;;5.00;3.93;;;;;;;;;;5075184;28;20436;-77
2022/11/17 07:10:15;;;;;;;10.60;8.60;;;;;;;;;;5075182;28;20477;-76
2022/11/17 07:12:42;;;;;;;9.43;8.07;;;;;;;;;;5070467;28;20437;-76
2022/11/17 07:15:10;;;;;;;5.20;4.70;;;;;;;;;;5054645;28;20441;-78
2022/11/17 07:17:37;;;;;;;3.83;3.50;;;;;;;;;;5054698;28;20454;-78
2022/11/17 07:20:04;;;;;;;4.30;3.10;;;;;;;;;;5054820;28;20480;-78
2022/11/17 07:22:33;;;;;;;3.63;3.23;;;;;;;;;;5053682;28;20449;-77
2022/11/17 07:25:00;;;;;;;3.13;2.70;;;;;;;;;;5054267;28;20960;-77
2022/11/17 07:27:27;;;;;;;2.93;2.73;;;;;;;;;;5056225;28;20778;-77
2022/11/17 07:29:54;;;;;;;3.30;3.00;;;;;;;;;;5057016;28;20827;-77
2022/11/17 07:32:21;;;;;;;4.50;3.07;;;;;;;;;;5058266;28;20446;-79
2022/11/17 07:34:48;;;;;;;2.20;2.10;;;;;;;;;;5055234;28;20556;-77
2022/11/17 07:37:15;;;;;;;2.30;2.10;;;;;;;;;;5057148;28;20437;-78
2022/11/17 07:39:44;;;;;;;3.87;2.17;;;;;;;;;;5054575;28;20445;-78
2022/11/17 07:42:11;;;;;;;2.10;2.00;;;;;;;;;;5055167;28;20791;-77
2022/11/17 07:44:38;;;;;;;5.53;1.80;;;;;;;;;;5054269;28;20488;-77
2022/11/17 07:47:05;;;;;;;2.20;2.10;;;;;;;;;;5055213;28;20845;-77
2022/11/17 07:49:32;;;;;;;3.80;2.90;;;;;;;;;;5055434;28;20480;-79
2022/11/17 07:51:59;;;;;;;2.63;2.43;;;;;;;;;;5055415;28;20448;-80
2022/11/17 07:54:26;;;;;;;3.63;2.20;;;;;;;;;;5053686;28;20476;-78
2022/11/17 07:56:54;;;;;;;2.80;2.30;;;;;;;;;;5054483;28;20449;-78
2022/11/17 07:59:21;;;;;;;2.37;2.00;;;;;;;;;;5054746;28;20445;-78
2022/11/17 08:01:49;;;;;;;5.17;2.20;;;;;;;;;;5055321;28;20449;-79
2022/11/17 08:04:16;;;;;;;3.60;1.70;;;;;;;;;;5054642;28;20473;-78
2022/11/17 08:06:44;;;;;;;2.03;1.93;;;;;;;;;;5054251;28;20526;-77
2022/11/17 08:09:13;;;;;;;2.60;2.40;;;;;;;;;;5054837;28;20492;-76
2022/11/17 08:11:40;;;;;;;1.80;1.70;;;;;;;;;;5055102;28;20453;-78
2022/11/17 08:14:08;;;;;;;2.60;1.63;;;;;;;;;;5053327;28;20531;-79
2022/11/17 08:16:36;;;;;;;2.20;2.10;;;;;;;;;;5056928;28;20528;-78
2022/11/17 08:19:05;;;;;;;2.33;1.33;;;;;;;;;;5054348;28;20949;-79
2022/11/17 08:21:32;;;;;;;1.73;1.63;;;;;;;;;;5054633;28;20549;-78
2022/11/17 08:23:59;;;;;;;2.70;1.70;;;;;;;;;;5053240;28;20474;-78
2022/11/17 08:26:26;;;;;;;3.90;1.60;;;;;;;;;;5055969;28;20456;-77
2022/11/17 08:28:53;;;;;;;3.07;1.60;;;;;;;;;;5055810;28;20448;-76
2022/11/17 08:31:22;;;;;;;3.00;1.67;;;;;;;;;;5058893;28;20454;-78
2022/11/17 08:33:49;;;;;;;2.53;1.43;;;;;;;;;;5056175;28;20472;-78
2022/11/17 08:36:16;;;;;;;2.50;1.40;;;;;;;;;;5055877;28;20445;-77
2022/11/17 08:38:43;;;;;;;1.70;0.90;;;;;;;;;;5055196;28;20453;-78
2022/11/17 08:41:10;;;;;;;2.40;1.30;;;;;;;;;;5055369;28;20571;-77
2022/11/17 08:43:37;;;;;;;2.80;1.67;;;;;;;;;;5053808;28;20469;-78
2022/11/17 08:46:04;;;;;;;2.47;1.17;;;;;;;;;;5054430;28;20449;-78
2022/11/17 08:48:33;;;;;;;1.40;1.30;;;;;;;;;;5058366;28;20437;-77
2022/11/17 08:51:04;;;;;;;2.30;1.27;;;;;;;;;;5056076;28;20481;-76
2022/11/17 08:53:32;;;;;;;2.20;1.70;;;;;;;;;;5055136;28;20465;-78
2022/11/17 08:55:59;;;;;;;2.13;1.20;;;;;;;;;;5054831;28;20441;-77
2022/11/17 08:58:26;;;;;;;1.50;1.10;;;;;;;;;;5052864;28;20465;-78
2022/11/17 09:00:53;;;;;;;2.50;0.80;;;;;;;;;;5052744;28;20520;-76
2022/11/17 09:03:20;;;;;;;1.03;0.90;;;;;;;;;;5055522;28;20914;-78
2022/11/17 09:05:48;;;;;;;3.50;1.90;;;;;;;;;;5061207;28;20437;-78
2022/11/17 09:08:15;;;;;;;1.27;0.80;;;;;;;;;;5053564;28;20969;-77
2022/11/17 09:10:42;;;;;;;3.20;0.97;;;;;;;;;;5056232;28;21017;-77
2022/11/17 09:13:09;;;;;;;0.80;0.80;;;;;;;;;;5055054;28;20759;-75
2022/11/17 09:15:36;;;;;;;1.77;0.80;;;;;;;;;;5055800;28;20966;-77
2022/11/17 09:18:03;;;;;;;1.17;1.00;;;;;;;;;;5054706;28;20445;-77
2022/11/17 09:20:30;;;;;;;1.67;1.10;;;;;;;;;;5058907;28;20553;-78
2022/11/17 09:23:01;;;;;;;2.00;1.03;;;;;;;;;;5057483;28;20886;-77
2022/11/17 09:25:28;;;;;;;1.03;0.80;;;;;;;;;;5059999;28;20434;-77
2022/11/17 09:27:55;;;;;;;2.07;1.10;;;;;;;;;;5060831;28;20442;-76
2022/11/17 09:30:22;;;;;;;0.90;0.90;;;;;;;;;;5061576;28;20486;-78
2022/11/17 09:32:49;;;;;;;1.60;0.83;;;;;;;;;;5060199;28;20468;-76
2022/11/17 09:35:16;;;;;;;2.40;1.00;;;;;;;;;;5058201;28;20445;-77
2022/11/17 09:37:43;;;;;;;1.00;0.90;;;;;;;;;;5058504;28;20449;-77
2022/11/17 09:40:14;;;;;;;1.27;0.87;;;;;;;;;;5055860;28;20445;-77
2022/11/17 09:42:41;;;;;;;1.60;1.00;;;;;;;;;;5055024;28;20445;-78
2022/11/17 09:45:12;;;;;;;1.70;1.00;;;;;;;;;;5056196;28;20445;-77
2022/11/17 09:47:41;;;;;;;1.37;1.27;;;;;;;;;;5054029;28;20494;-76
2022/11/17 09:50:16;;;;;;;2.00;1.07;;;;;;;;;;5054276;28;20477;-78
2022/11/17 09:52:48;;;;;;;0.80;0.80;;;;;;;;;;5052574;28;20940;-77
2022/11/17 09:55:21;;;;;;;1.57;1.47;;;;;;;;;;5053910;28;20452;-77
2022/11/17 09:57:49;;;;;;;1.33;1.10;;;;;;;;;;5052936;28;20430;-77
2022/11/17 10:00:18;;;;;;;2.37;1.37;;;;;;;;;;5052858;28;21265;-77
2022/11/17 10:02:46;;;;;;;2.60;1.07;;;;;;;;;;5052299;28;20446;-77
2022/11/17 10:05:15;;;;;;;2.50;0.93;;;;;;;;;;5054678;28;20453;-77
2022/11/17 10:07:46;;;;;;;1.70;0.83;;;;;;;;;;5053270;28;20450;-75
2022/11/17 10:10:13;;;;;;;1.70;1.17;;;;;;;;;;5052264;28;21028;-76
2022/11/17 10:12:45;;;;;;;1.30;1.00;;;;;;;;;;5053911;28;20453;-76
2022/11/17 10:15:24;;;;;;;2.70;0.93;;;;;;;;;;5054673;28;20438;-76
2022/11/17 10:17:51;;;;;;;1.47;0.80;;;;;;;;;;5052599;28;20442;-77
2022/11/17 10:20:18;;;;;;;1.87;0.87;;;;;;;;;;5051539;28;21194;-77
2022/11/17 10:22:46;;;;;;;2.17;0.80;;;;;;;;;;5050923;28;20446;-76
2022/11/17 10:25:24;;;;;;;2.53;1.10;;;;;;;;;;5053151;28;20430;-78
2022/11/17 10:27:53;;;;;;;2.77;1.00;;;;;;;;;;5052667;28;20452;-77
2022/11/17 10:30:22;;;;;;;2.97;1.10;;;;;;;;;;5051524;28;20535;-77
2022/11/17 10:32:50;;;;;;;1.90;0.90;;;;;;;;;;5051580;28;20465;-77
2022/11/17 10:35:18;;;;;;;4.30;1.40;;;;;;;;;;5051375;28;20445;-76
2022/11/17 10:37:52;;;;;;;2.33;1.00;;;;;;;;;;5051929;28;20453;-77
2022/11/17 10:40:20;;;;;;;2.20;1.40;;;;;;;;;;5052374;28;20429;-76
2022/11/17 10:42:56;;;;;;;2.50;1.23;;;;;;;;;;5051458;28;20442;-77
2022/11/17 10:45:23;;;;;;;7.93;1.57;;;;;;;;;;5051532;28;20787;-77
2022/11/17 10:47:51;;;;;;;2.60;1.30;;;;;;;;;;5052751;28;20445;-76
2022/11/17 10:50:23;;;;;;;2.30;1.17;;;;;;;;;;5051567;28;20478;-76
2022/11/17 10:52:51;;;;;;;3.70;1.63;;;;;;;;;;5050940;28;20449;-75
2022/11/17 10:55:20;;;;;;;2.57;1.10;;;;;;;;;;5050871;28;20450;-77
2022/11/17 10:57:48;;;;;;;2.83;1.37;;;;;;;;;;5051029;28;20442;-78
2022/11/17 11:00:24;;;;;;;4.00;1.30;;;;;;;;;;5051551;28;20788;-77
2022/11/17 11:03:03;;;;;;;1.33;0.83;;;;;;;;;;5050725;28;20429;-76
2022/11/17 11:05:30;;;;;;;3.20;1.10;;;;;;;;;;5051529;28;20530;-77
2022/11/17 11:08:08;;;;;;;2.53;1.10;;;;;;;;;;5052203;28;20457;-77
2022/11/17 11:10:35;;;;;;;2.17;1.00;;;;;;;;;;5051317;28;20470;-79
2022/11/17 11:13:07;;;;;;;2.60;1.20;;;;;;;;;;5050112;28;20465;-77
2022/11/17 11:15:36;;;;;;;3.40;1.30;;;;;;;;;;5052839;28;20850;-78
2022/11/17 11:18:06;;;;;;;2.93;1.17;;;;;;;;;;5052918;28;20941;-77
2022/11/17 11:20:39;;;;;;;3.53;1.03;;;;;;;;;;5053252;28;20448;-77
2022/11/17 11:23:09;;;;;;;1.80;0.90;;;;;;;;;;5053705;28;20480;-77
2022/11/17 11:25:40;;;;;;;2.73;1.47;;;;;;;;;;5054631;28;20434;-77
2022/11/17 11:28:16;;;;;;;1.43;0.90;;;;;;;;;;5050994;28;20800;-77
2022/11/17 11:30:48;;;;;;;2.03;1.50;;;;;;;;;;5050677;28;20473;-77
2022/11/17 11:33:28;;;;;;;2.50;0.90;;;;;;;;;;5052105;28;20464;-78
2022/11/17 11:35:58;;;;;;;3.83;1.43;;;;;;;;;;5051357;28;20452;-78
2022/11/17 11:38:33;;;;;;;4.97;1.50;;;;;;;;;;5051044;28;21004;-77
2022/11/17 11:41:07;;;;;;;2.30;1.00;;;;;;;;;;5052793;28;20422;-77
2022/11/17 11:43:40;;;;;;;3.67;1.13;;;;;;;;;;5052671;28;20933;-77
2022/11/17 11:46:12;;;;;;;2.87;1.30;;;;;;;;;;5051806;28;20426;-79
2022/11/17 11:48:41;;;;;;;1.03;0.80;;;;;;;;;;5055008;28;20436;-78
2022/11/17 11:51:12;;;;;;;3.60;1.60;;;;;;;;;;5054950;28;20489;-78
2022/11/17 11:53:44;;;;;;;4.57;1.50;;;;;;;;;;5053883;28;20469;-77
2022/11/17 11:56:14;;;;;;;7.03;1.37;;;;;;;;;;5054675;28;20441;-76
2022/11/17 11:58:44;;;;;;;4.13;1.50;;;;;;;;;;5056383;28;20448;-78
2022/11/17 12:01:13;;;;;;;5.20;2.00;;;;;;;;;;5058063;28;20440;-78
2022/11/17 12:03:44;;;;;;;1.93;1.00;;;;;;;;;;5058429;28;20464;-78
2022/11/17 12:09:02;;;;;;;2.33;1.57;;;;;;;;;;5054218;28;20405;-77
2022/11/17 12:14:17;;;;;;;2.40;1.50;;;;;;;;;;5044708;28;20460;-77
2022/11/17 12:16:47;;;;;;;6.00;1.90;;;;;;;;;;5052582;28;20449;-76
2022/11/17 12:19:32;;;;;;;2.63;1.60;;;;;;;;;;5052470;28;20528;-76
2022/11/17 12:21:59;;;;;;;8.00;1.40;;;;;;;;;;5051477;28;20448;-77
2022/11/17 12:24:28;;;;;;;3.67;1.53;;;;;;;;;;5050558;28;20465;-76
2022/11/17 12:27:18;;;;;;;1.57;1.20;;;;;;;;;;5051179;28;21104;-76
2022/11/17 12:29:47;;;;;;;4.60;1.53;;;;;;;;;;5051144;28;20445;-77
2022/11/17 12:32:39;;;;;;;3.90;1.50;;;;;;;;;;5052066;28;20957;-77
2022/11/17 12:35:24;;;;;;;2.90;1.10;;;;;;;;;;5052403;28;20474;-77
2022/11/17 12:38:21;;;;;;;2.53;1.47;;;;;;;;;;5052974;28;20500;-77
2022/11/17 12:40:49;;;;;;;3.53;1.40;;;;;;;;;;5051857;28;20449;-76
2022/11/17 12:43:20;;;;;;;3.10;1.47;;;;;;;;;;5051664;28;20462;-78
2022/11/17 12:46:04;;;;;;;4.00;1.37;;;;;;;;;;5052264;28;20442;-78
2022/11/17 12:48:32;;;;;;;3.97;1.20;;;;;;;;;;5052867;28;21064;-78
2022/11/17 12:51:01;;;;;;;3.33;1.53;;;;;;;;;;5052621;28;20488;-76
2022/11/17 12:53:46;;;;;;;3.70;1.47;;;;;;;;;;5051511;28;20462;-77
2022/11/17 12:56:23;;;;;;;3.10;1.87;;;;;;;;;;5056127;28;20452;-78
2022/11/17 12:58:59;;;;;;;3.07;1.20;;;;;;;;;;5054919;28;20446;-76
2022/11/17 13:01:33;;;;;;;6.07;1.70;;;;;;;;;;5054661;28;20437;-77
2022/11/17 13:04:04;;;;;;;3.33;1.67;;;;;;;;;;5052811;28;20463;-78
2022/11/17 13:06:31;;;;;;;5.17;2.03;;;;;;;;;;5068476;28;20449;-77
2022/11/17 13:08:59;;;;;;;5.83;1.67;;;;;;;;;;5072699;28;20452;-78
2022/11/17 13:11:27;;;;;;;5.77;2.03;;;;;;;;;;5073002;28;21168;-77
2022/11/17 13:14:07;;;;;;;5.17;1.80;;;;;;;;;;5058710;28;20461;-77
2022/11/17 13:16:36;;;;;;;4.43;1.50;;;;;;;;;;5052186;28;21223;-77
2022/11/17 13:19:03;;;;;;;3.50;1.80;;;;;;;;;;5052617;28;20488;-77
2022/11/17 13:21:31;;;;;;;3.60;1.47;;;;;;;;;;5052265;28;20438;-78
2022/11/17 13:23:59;;;;;;;4.60;1.90;;;;;;;;;;5051241;28;20478;-77
2022/11/17 13:26:27;;;;;;;4.73;1.77;;;;;;;;;;5051149;28;20525;-78
2022/11/17 13:29:03;;;;;;;4.67;1.50;;;;;;;;;;5051003;28;20449;-77
2022/11/17 13:31:30;;;;;;;4.13;1.80;;;;;;;;;;5050508;28;20481;-78
2022/11/17 13:34:01;;;;;;;3.70;1.80;;;;;;;;;;5049767;28;20464;-78
2022/11/17 13:36:28;;;;;;;3.57;1.57;;;;;;;;;;5049939;28;20442;-78
2022/11/17 13:38:59;;;;;;;2.40;1.23;;;;;;;;;;5051516;28;20871;-77
2022/11/17 13:41:26;;;;;;;2.67;1.40;;;;;;;;;;5051451;28;20529;-76
2022/11/17 13:43:54;;;;;;;3.27;1.60;;;;;;;;;;5050834;28;20964;-78
2022/11/17 13:46:21;;;;;;;4.93;1.47;;;;;;;;;;5051338;28;20446;-77
2022/11/17 13:48:49;;;;;;;2.57;1.30;;;;;;;;;;5050563;28;20456;-77
2022/11/17 13:51:37;;;;;;;5.37;2.43;;;;;;;;;;5050332;28;20481;-76
2022/11/17 13:54:06;;;;;;;1.80;1.20;;;;;;;;;;5050207;28;20472;-77
2022/11/17 13:56:36;;;;;;;3.23;1.30;;;;;;;;;;5051025;28;20826;-78
2022/11/17 13:59:05;;;;;;;3.03;1.30;;;;;;;;;;5054219;28;20457;-77
2022/11/17 14:01:32;;;;;;;4.93;1.90;;;;;;;;;;5056954;28;20475;-77
2022/11/17 14:04:16;;;;;;;4.40;1.90;;;;;;;;;;5051234;28;20469;-77
2022/11/17 14:06:53;;;;;;;3.80;1.57;;;;;;;;;;5050466;28;20472;-77
2022/11/17 14:09:22;;;;;;;6.00;2.03;;;;;;;;;;5057142;28;20448;-77
2022/11/17 14:11:49;;;;;;;4.07;1.93;;;;;;;;;;5054604;28;20512;-77
2022/11/17 14:14:20;;;;;;;4.13;1.73;;;;;;;;;;5052350;28;20992;-77
2022/11/17 14:16:47;;;;;;;6.37;1.93;;;;;;;;;;5049813;28;20430;-77
2022/11/17 14:19:27;;;;;;;8.73;2.40;;;;;;;;;;5048722;28;20442;-77
2022/11/17 14:21:58;;;;;;;2.73;1.77;;;;;;;;;;5048831;28;20532;-77
2022/11/17 14:24:27;;;;;;;4.13;1.83;;;;;;;;;;5047873;28;20534;-77
2022/11/17 14:26:54;;;;;;;6.37;2.30;;;;;;;;;;5049191;28;20544;-76
2022/11/17 14:29:22;;;;;;;4.13;2.10;;;;;;;;;;5049174;28;20437;-77
2022/11/17 14:31:49;;;;;;;4.80;2.93;;;;;;;;;;5048801;28;20895;-78
2022/11/17 14:34:16;;;;;;;6.03;2.60;;;;;;;;;;5048490;28;20878;-78
2022/11/17 14:36:43;;;;;;;5.03;2.33;;;;;;;;;;5048450;28;20450;-77
2022/11/17 14:39:15;;;;;;;6.73;2.67;;;;;;;;;;5050370;28;20817;-77
2022/11/17 14:41:43;;;;;;;5.77;2.97;;;;;;;;;;5050085;28;20971;-76
2022/11/17 14:44:11;;;;;;;8.00;2.77;;;;;;;;;;5048499;28;20980;-77
2022/11/17 14:46:38;;;;;;;8.70;2.47;;;;;;;;;;5048268;28;20448;-76
2022/11/17 14:49:05;;;;;;;6.43;1.90;;;;;;;;;;5050023;28;20448;-76
2022/11/17 14:51:33;;;;;;;7.67;2.53;;;;;;;;;;5049623;28;20481;-78
2022/11/17 14:54:00;;;;;;;7.27;2.87;;;;;;;;;;5049365;28;20474;-77
2022/11/17 14:56:27;;;;;;;7.17;2.70;;;;;;;;;;5049476;28;20454;-77
2022/11/17 14:58:57;;;;;;;7.63;2.70;;;;;;;;;;5050011;28;20495;-77
2022/11/17 15:01:27;;;;;;;7.23;2.80;;;;;;;;;;5050251;28;20457;-76
2022/11/17 15:03:55;;;;;;;5.03;2.80;;;;;;;;;;5049532;28;21169;-76
2022/11/17 15:06:22;;;;;;;11.70;3.10;;;;;;;;;;5048978;28;20450;-77
2022/11/17 15:08:53;;;;;;;8.33;2.73;;;;;;;;;;5050381;28;20450;-77
2022/11/17 15:11:20;;;;;;;3.27;2.13;;;;;;;;;;5049045;28;20481;-77
2022/11/17 15:13:47;;;;;;;8.77;4.77;;;;;;;;;;5047523;28;20465;-77
2022/11/17 15:16:16;;;;;;;4.90;2.10;;;;;;;;;;5048408;28;20937;-77
2022/11/17 15:18:44;;;;;;;8.97;3.00;;;;;;;;;;5048013;28;20437;-78
2022/11/17 15:21:12;;;;;;;5.83;2.50;;;;;;;;;;5047782;28;20816;-77
2022/11/17 15:23:40;;;;;;;5.70;1.90;;;;;;;;;;5051136;28;20960;-78
2022/11/17 15:26:08;;;;;;;10.27;3.43;;;;;;;;;;5053607;28;20449;-78
2022/11/17 15:28:35;;;;;;;7.37;2.30;;;;;;;;;;5053344;28;20907;-78
2022/11/17 15:31:08;;;;;;;4.77;1.97;;;;;;;;;;5052655;28;20856;-76